LAN211 SCEL-SCIE
Flight info
| Callsign | LAN211 |
|---|---|
| Flight time | N/A |
| Altitude | 31000 |
| Route | GELUS5B GELUS UQ809 ARUNI ARUNI1A |
| Aircraft | A320/M-SDE3FGHIRWY/LB1 |
Departure
| Time | N/A |
|---|---|
| Airport | Comodoro Arturo Merino Benítez International Airport (SCEL) |
Arrival
| Time | 2026-05-06 04:21 |
|---|---|
| Airport | Carriel Sur International Airport (SCIE) |
| Time | Latitude | Longitude | Altitude | Speed | Heading |
|---|---|---|---|---|---|
| 2026-05-06 03:48 | -34.32265 | -71.45355 | 28462 ft | 427 kts | 220° |
| 2026-05-06 03:48 | -34.34920 | -71.46997 | 28896 ft | 430 kts | 220° |
| 2026-05-06 03:48 | -34.37587 | -71.48646 | 29321 ft | 431 kts | 220° |
| 2026-05-06 03:48 | -34.40265 | -71.50307 | 29764 ft | 433 kts | 220° |
| 2026-05-06 03:49 | -34.42958 | -71.51979 | 30182 ft | 435 kts | 221° |
| 2026-05-06 03:49 | -34.45656 | -71.53656 | 30535 ft | 437 kts | 221° |
| 2026-05-06 03:49 | -34.48369 | -71.55345 | 30888 ft | 439 kts | 221° |
| 2026-05-06 03:49 | -34.51094 | -71.57039 | 31041 ft | 436 kts | 221° |
| 2026-05-06 03:50 | -34.53753 | -71.58670 | 31046 ft | 422 kts | 221° |
| 2026-05-06 03:50 | -34.56349 | -71.60261 | 31046 ft | 416 kts | 221° |
| 2026-05-06 03:50 | -34.61475 | -71.63441 | 31047 ft | 413 kts | 222° |
| 2026-05-06 03:51 | -34.66588 | -71.66663 | 31045 ft | 427 kts | 222° |
| 2026-05-06 03:51 | -34.69253 | -71.68360 | 31046 ft | 439 kts | 221° |
| 2026-05-06 03:51 | -34.71996 | -71.70100 | 31044 ft | 450 kts | 221° |
| 2026-05-06 03:52 | -34.77678 | -71.73659 | 31037 ft | 467 kts | 220° |
| 2026-05-06 03:52 | -34.83501 | -71.77260 | 31037 ft | 471 kts | 220° |
| 2026-05-06 03:53 | -34.89346 | -71.80890 | 31027 ft | 473 kts | 219° |
| 2026-05-06 03:53 | -34.95206 | -71.84566 | 31028 ft | 473 kts | 220° |
| 2026-05-06 03:54 | -35.01057 | -71.88255 | 31034 ft | 474 kts | 220° |
| 2026-05-06 03:54 | -35.06908 | -71.91942 | 31032 ft | 474 kts | 219° |
| 2026-05-06 03:55 | -35.12773 | -71.95649 | 31024 ft | 475 kts | 219° |
| 2026-05-06 03:55 | -35.18645 | -71.99355 | 31015 ft | 476 kts | 219° |
| 2026-05-06 03:56 | -35.24521 | -72.03063 | 31014 ft | 475 kts | 219° |
| 2026-05-06 03:56 | -35.30405 | -72.06793 | 31010 ft | 475 kts | 219° |
| 2026-05-06 03:57 | -35.33290 | -72.08612 | 31008 ft | 456 kts | 219° |
| 2026-05-06 03:57 | -35.36058 | -72.10337 | 31011 ft | 437 kts | 220° |
| 2026-05-06 03:57 | -35.38723 | -72.12004 | 31004 ft | 424 kts | 221° |
| 2026-05-06 03:57 | -35.41327 | -72.13660 | 31024 ft | 419 kts | 220° |
| 2026-05-06 03:58 | -35.46440 | -72.16972 | 30999 ft | 425 kts | 220° |
| 2026-05-06 03:58 | -35.49093 | -72.18713 | 30992 ft | 437 kts | 220° |
| 2026-05-06 03:58 | -35.51776 | -72.20454 | 30628 ft | 436 kts | 219° |
| 2026-05-06 03:59 | -35.54455 | -72.22163 | 30063 ft | 432 kts | 219° |
| 2026-05-06 03:59 | -35.57117 | -72.23846 | 29444 ft | 429 kts | 218° |
| 2026-05-06 03:59 | -35.59756 | -72.25513 | 28853 ft | 425 kts | 218° |
| 2026-05-06 03:59 | -35.62373 | -72.27173 | 28233 ft | 422 kts | 217° |
| 2026-05-06 04:00 | -35.64969 | -72.28829 | 27663 ft | 418 kts | 217° |
| 2026-05-06 04:00 | -35.67539 | -72.30476 | 27112 ft | 415 kts | 216° |
| 2026-05-06 04:00 | -35.70091 | -72.32118 | 26551 ft | 413 kts | 216° |
| 2026-05-06 04:00 | -35.72627 | -72.33752 | 26003 ft | 410 kts | 216° |
| 2026-05-06 04:01 | -35.75144 | -72.35374 | 25509 ft | 407 kts | 216° |
| 2026-05-06 04:01 | -35.77643 | -72.36985 | 25053 ft | 403 kts | 216° |
| 2026-05-06 04:01 | -35.80124 | -72.38581 | 24472 ft | 402 kts | 216° |
| 2026-05-06 04:01 | -35.82594 | -72.40172 | 24015 ft | 398 kts | 215° |
| 2026-05-06 04:02 | -35.85053 | -72.41758 | 23564 ft | 397 kts | 215° |
| 2026-05-06 04:02 | -35.87460 | -72.43396 | 23021 ft | 391 kts | 221° |
| 2026-05-06 04:02 | -35.89572 | -72.45408 | 22571 ft | 379 kts | 231° |
| 2026-05-06 04:02 | -35.91385 | -72.47713 | 22129 ft | 370 kts | 234° |
| 2026-05-06 04:03 | -35.93150 | -72.50010 | 21714 ft | 367 kts | 234° |
| 2026-05-06 04:03 | -35.94902 | -72.52286 | 21286 ft | 364 kts | 234° |
| 2026-05-06 04:03 | -35.96638 | -72.54543 | 20842 ft | 360 kts | 234° |
| 2026-05-06 04:03 | -35.98351 | -72.56767 | 20437 ft | 356 kts | 234° |
| 2026-05-06 04:04 | -36.00050 | -72.58975 | 20017 ft | 352 kts | 234° |
| 2026-05-06 04:04 | -36.01706 | -72.61134 | 19625 ft | 349 kts | 233° |
| 2026-05-06 04:04 | -36.03366 | -72.63308 | 19214 ft | 346 kts | 234° |
| 2026-05-06 04:04 | -36.05012 | -72.65466 | 18812 ft | 344 kts | 233° |
| 2026-05-06 04:05 | -36.06645 | -72.67606 | 18405 ft | 341 kts | 233° |
| 2026-05-06 04:05 | -36.08277 | -72.69739 | 17979 ft | 339 kts | 233° |
| 2026-05-06 04:05 | -36.09891 | -72.71850 | 17574 ft | 335 kts | 233° |
| 2026-05-06 04:05 | -36.11483 | -72.73937 | 17185 ft | 331 kts | 234° |
| 2026-05-06 04:06 | -36.13057 | -72.76000 | 16810 ft | 328 kts | 234° |
| 2026-05-06 04:06 | -36.14616 | -72.78043 | 16430 ft | 325 kts | 234° |
| 2026-05-06 04:06 | -36.16161 | -72.80071 | 16050 ft | 322 kts | 234° |
| 2026-05-06 04:06 | -36.17691 | -72.82082 | 15669 ft | 319 kts | 234° |
| 2026-05-06 04:07 | -36.19210 | -72.84077 | 15303 ft | 317 kts | 234° |
| 2026-05-06 04:07 | -36.20718 | -72.86056 | 14936 ft | 315 kts | 234° |
| 2026-05-06 04:07 | -36.22219 | -72.88027 | 14576 ft | 313 kts | 234° |
| 2026-05-06 04:07 | -36.23706 | -72.89985 | 14222 ft | 311 kts | 234° |
| 2026-05-06 04:08 | -36.25185 | -72.91938 | 13851 ft | 310 kts | 234° |
| 2026-05-06 04:08 | -36.26655 | -72.93887 | 13472 ft | 309 kts | 234° |
| 2026-05-06 04:08 | -36.28118 | -72.95823 | 13117 ft | 307 kts | 234° |
| 2026-05-06 04:08 | -36.29574 | -72.97744 | 12747 ft | 305 kts | 234° |
| 2026-05-06 04:09 | -36.31121 | -72.99550 | 12393 ft | 308 kts | 224° |
| 2026-05-06 04:09 | -36.32971 | -73.00947 | 12020 ft | 315 kts | 211° |
| 2026-05-06 04:09 | -36.35001 | -73.01924 | 11646 ft | 318 kts | 206° |
| 2026-05-06 04:09 | -36.37072 | -73.02873 | 11265 ft | 317 kts | 207° |
| 2026-05-06 04:10 | -36.39137 | -73.03825 | 10882 ft | 316 kts | 207° |
| 2026-05-06 04:10 | -36.41194 | -73.04778 | 10502 ft | 315 kts | 207° |
| 2026-05-06 04:10 | -36.43252 | -73.05732 | 10124 ft | 315 kts | 207° |
| 2026-05-06 04:10 | -36.45298 | -73.06679 | 9822 ft | 312 kts | 207° |
| 2026-05-06 04:11 | -36.47328 | -73.07618 | 9454 ft | 310 kts | 207° |
| 2026-05-06 04:11 | -36.49348 | -73.08555 | 9078 ft | 309 kts | 207° |
| 2026-05-06 04:11 | -36.51357 | -73.09489 | 8727 ft | 307 kts | 207° |
| 2026-05-06 04:11 | -36.53355 | -73.10419 | 8353 ft | 306 kts | 207° |
| 2026-05-06 04:12 | -36.55338 | -73.11340 | 7979 ft | 305 kts | 207° |
| 2026-05-06 04:12 | -36.57318 | -73.12259 | 7632 ft | 303 kts | 207° |
| 2026-05-06 04:12 | -36.59282 | -73.13169 | 7296 ft | 301 kts | 207° |
| 2026-05-06 04:12 | -36.60582 | -73.13772 | 7092 ft | 298 kts | 207° |
| 2026-05-06 04:13 | -36.62456 | -73.14633 | 6965 ft | 277 kts | 207° |
| 2026-05-06 04:13 | -36.64203 | -73.15432 | 6788 ft | 260 kts | 208° |
| 2026-05-06 04:13 | -36.65872 | -73.16203 | 6416 ft | 253 kts | 208° |
| 2026-05-06 04:13 | -36.67516 | -73.16974 | 5910 ft | 252 kts | 209° |
| 2026-05-06 04:14 | -36.69161 | -73.17751 | 5395 ft | 252 kts | 209° |
| 2026-05-06 04:14 | -36.70862 | -73.18437 | 5023 ft | 259 kts | 199° |
| 2026-05-06 04:14 | -36.72633 | -73.18759 | 4695 ft | 254 kts | 193° |
| 2026-05-06 04:14 | -36.74352 | -73.19021 | 4470 ft | 241 kts | 193° |
| 2026-05-06 04:15 | -36.75992 | -73.19270 | 4412 ft | 234 kts | 193° |
| 2026-05-06 04:15 | -36.77606 | -73.19520 | 4319 ft | 233 kts | 192° |
| 2026-05-06 04:15 | -36.79221 | -73.19771 | 4293 ft | 232 kts | 193° |
| 2026-05-06 04:15 | -36.80760 | -73.20005 | 4159 ft | 216 kts | 194° |
| 2026-05-06 04:16 | -36.82213 | -73.20230 | 4014 ft | 205 kts | 194° |
| 2026-05-06 04:16 | -36.83597 | -73.20446 | 3920 ft | 195 kts | 195° |
| 2026-05-06 04:16 | -36.84939 | -73.20468 | 3734 ft | 197 kts | 171° |
| 2026-05-06 04:16 | -36.86247 | -73.19894 | 3436 ft | 202 kts | 148° |
| 2026-05-06 04:17 | -36.87305 | -73.18759 | 3150 ft | 200 kts | 121° |
| 2026-05-06 04:17 | -36.87955 | -73.17270 | 2871 ft | 192 kts | 97° |
| 2026-05-06 04:17 | -36.88158 | -73.15694 | 2614 ft | 177 kts | 75° |
| 2026-05-06 04:17 | -36.87976 | -73.14248 | 2387 ft | 162 kts | 56° |
| 2026-05-06 04:18 | -36.87514 | -73.13048 | 2172 ft | 145 kts | 41° |
| 2026-05-06 04:18 | -36.86914 | -73.12167 | 2057 ft | 123 kts | 28° |
| 2026-05-06 04:18 | -36.86246 | -73.11555 | 2013 ft | 119 kts | 15° |
| 2026-05-06 04:18 | -36.85478 | -73.11119 | 1831 ft | 124 kts | 16° |
| 2026-05-06 04:19 | -36.84675 | -73.10648 | 1531 ft | 127 kts | 17° |
| 2026-05-06 04:19 | -36.83860 | -73.10169 | 1324 ft | 125 kts | 19° |
| 2026-05-06 04:19 | -36.83058 | -73.09698 | 1140 ft | 130 kts | 25° |
| 2026-05-06 04:19 | -36.82246 | -73.09222 | 957 ft | 126 kts | 22° |
| 2026-05-06 04:20 | -36.81439 | -73.08752 | 774 ft | 133 kts | 22° |
| 2026-05-06 04:20 | -36.80623 | -73.08274 | 608 ft | 129 kts | 23° |
| 2026-05-06 04:20 | -36.79824 | -73.07809 | 417 ft | 125 kts | 25° |
| 2026-05-06 04:20 | -36.79043 | -73.07353 | 277 ft | 122 kts | 24° |
| 2026-05-06 04:21 | -36.78255 | -73.06895 | 142 ft | 127 kts | 22° |
| 2026-05-06 04:21 | -36.77501 | -73.06461 | 66 ft | 106 kts | 24° |
| 2026-05-06 04:21 | -36.76979 | -73.06158 | 57 ft | 58 kts | 25° |
| 2026-05-06 04:21 | -36.76737 | -73.06018 | 63 ft | 29 kts | 25° |
| 2026-05-06 04:22 | -36.76564 | -73.05918 | 61 ft | 24 kts | 25° |
| 2026-05-06 04:22 | -36.76431 | -73.05840 | 67 ft | 19 kts | 25° |
| 2026-05-06 04:22 | -36.76332 | -73.05755 | 66 ft | 12 kts | 60° |
| 2026-05-06 04:23 | -36.76384 | -73.05592 | 59 ft | 13 kts | 155° |
| 2026-05-06 04:23 | -36.76472 | -73.05615 | 59 ft | 13 kts | 205° |
| 2026-05-06 04:23 | -36.76552 | -73.05661 | 54 ft | 12 kts | 205° |
| 2026-05-06 04:23 | -36.76636 | -73.05710 | 55 ft | 14 kts | 205° |
| 2026-05-06 04:24 | -36.76729 | -73.05764 | 54 ft | 15 kts | 205° |
| 2026-05-06 04:24 | -36.76825 | -73.05820 | 55 ft | 15 kts | 204° |
| 2026-05-06 04:24 | -36.76924 | -73.05876 | 55 ft | 16 kts | 205° |
| 2026-05-06 04:24 | -36.77022 | -73.05935 | 54 ft | 16 kts | 206° |
| 2026-05-06 04:25 | -36.77121 | -73.05993 | 58 ft | 16 kts | 205° |
| 2026-05-06 04:25 | -36.77220 | -73.06050 | 57 ft | 16 kts | 205° |
| 2026-05-06 04:25 | -36.77319 | -73.06107 | 56 ft | 16 kts | 205° |
| 2026-05-06 04:25 | -36.77415 | -73.06163 | 54 ft | 15 kts | 205° |
| 2026-05-06 04:26 | -36.77492 | -73.06179 | 61 ft | 11 kts | 151° |
| 2026-05-06 04:26 | -36.77525 | -73.06100 | 54 ft | 9 kts | 111° |
| 2026-05-06 04:26 | -36.77562 | -73.06044 | 57 ft | 8 kts | 155° |
| 2026-05-06 04:26 | -36.77591 | -73.06036 | 54 ft | 3 kts | 170° |
| 2026-05-06 04:27 | -36.77603 | -73.06033 | 57 ft | 1 kts | 170° |
| 2026-05-06 04:27 | -36.77607 | -73.06032 | 57 ft | 0 kts | 170° |
| 2026-05-06 04:50 | -36.77586 | -73.06037 | 56 ft | 4 kts | 173° |
| 2026-05-06 04:50 | -36.77559 | -73.06038 | 55 ft | 4 kts | 189° |
| 2026-05-06 04:50 | -36.77539 | -73.06029 | 51 ft | 4 kts | 252° |
| 2026-05-06 04:50 | -36.77537 | -73.06022 | 51 ft | 0 kts | 272° |
| 2026-05-06 04:52 | -36.77537 | -73.06024 | 51 ft | 1 kts | 272° |
| 2026-05-06 04:52 | -36.77536 | -73.06045 | 58 ft | 4 kts | 275° |
| 2026-05-06 04:53 | -36.77531 | -73.06084 | 60 ft | 6 kts | 284° |
| 2026-05-06 04:53 | -36.77514 | -73.06137 | 60 ft | 8 kts | 292° |
| 2026-05-06 04:53 | -36.77514 | -73.06205 | 57 ft | 9 kts | 241° |
| 2026-05-06 04:53 | -36.77571 | -73.06254 | 61 ft | 11 kts | 205° |
| 2026-05-06 04:54 | -36.77648 | -73.06299 | 56 ft | 13 kts | 204° |
| 2026-05-06 04:54 | -36.77739 | -73.06352 | 54 ft | 15 kts | 206° |
| 2026-05-06 04:54 | -36.77843 | -73.06413 | 58 ft | 18 kts | 205° |
| 2026-05-06 04:54 | -36.77960 | -73.06482 | 61 ft | 20 kts | 205° |
| 2026-05-06 04:55 | -36.78090 | -73.06558 | 53 ft | 22 kts | 205° |
| 2026-05-06 04:55 | -36.78214 | -73.06632 | 59 ft | 16 kts | 211° |
| 2026-05-06 04:55 | -36.78233 | -73.06747 | 63 ft | 13 kts | 294° |
| 2026-05-06 04:55 | -36.78206 | -73.06825 | 68 ft | 8 kts | 294° |
| 2026-05-06 04:56 | -36.78176 | -73.06856 | 66 ft | 5 kts | 25° |
| 2026-05-06 04:56 | -36.78160 | -73.06846 | 62 ft | 0 kts | 25° |
| 2026-05-06 04:56 | -36.78159 | -73.06845 | 59 ft | 0 kts | 25° |
| 2026-05-06 04:57 | -36.78158 | -73.06845 | 59 ft | 3 kts | 25° |
| 2026-05-06 04:57 | -36.77964 | -73.06731 | 58 ft | 63 kts | 25° |
| 2026-05-06 04:57 | -36.77393 | -73.06398 | 67 ft | 115 kts | 25° |
| 2026-05-06 04:57 | -36.76596 | -73.05917 | 388 ft | 124 kts | 25° |
| 2026-05-06 04:58 | -36.75806 | -73.05440 | 777 ft | 129 kts | 23° |
| 2026-05-06 04:58 | -36.74979 | -73.04961 | 1186 ft | 134 kts | 21° |
| 2026-05-06 04:58 | -36.74055 | -73.04438 | 1327 ft | 161 kts | 19° |
| 2026-05-06 04:58 | -36.72995 | -73.03833 | 1784 ft | 169 kts | 19° |
| 2026-05-06 04:59 | -36.71897 | -73.03199 | 2259 ft | 184 kts | 18° |
| 2026-05-06 04:59 | -36.70652 | -73.02491 | 2631 ft | 209 kts | 18° |
| 2026-05-06 04:59 | -36.69320 | -73.01531 | 3119 ft | 238 kts | 37° |
| 2026-05-06 04:59 | -36.68518 | -72.99595 | 3819 ft | 272 kts | 73° |
| 2026-05-06 05:00 | -36.68740 | -72.97162 | 4616 ft | 298 kts | 109° |
| 2026-05-06 05:00 | -36.70022 | -72.95080 | 5420 ft | 311 kts | 144° |
| 2026-05-06 05:00 | -36.72005 | -72.94038 | 6256 ft | 311 kts | 178° |
| 2026-05-06 05:00 | -36.74092 | -72.94342 | 7084 ft | 299 kts | 207° |
| 2026-05-06 05:01 | -36.76028 | -72.95292 | 7964 ft | 299 kts | 208° |
| 2026-05-06 05:01 | -36.77959 | -72.96257 | 8870 ft | 300 kts | 207° |
| 2026-05-06 05:01 | -36.79910 | -72.97238 | 9683 ft | 304 kts | 208° |
| 2026-05-06 05:01 | -36.81886 | -72.98232 | 10317 ft | 313 kts | 207° |
| 2026-05-06 05:02 | -36.84081 | -72.99008 | 10534 ft | 342 kts | 197° |
| 2026-05-06 05:02 | -36.86498 | -72.99470 | 10935 ft | 359 kts | 191° |
| 2026-05-06 05:02 | -36.88979 | -72.99742 | 11561 ft | 365 kts | 188° |
| 2026-05-06 05:02 | -36.91531 | -72.99956 | 12198 ft | 370 kts | 188° |
| 2026-05-06 05:03 | -36.94114 | -73.00184 | 12854 ft | 373 kts | 189° |
| 2026-05-06 05:03 | -36.96719 | -73.00459 | 13507 ft | 377 kts | 190° |
| 2026-05-06 05:03 | -36.99346 | -73.00781 | 14128 ft | 381 kts | 191° |
| 2026-05-06 05:03 | -37.01993 | -73.01138 | 14704 ft | 384 kts | 191° |
| 2026-05-06 05:04 | -37.04654 | -73.01514 | 15283 ft | 387 kts | 192° |
| 2026-05-06 05:04 | -37.07341 | -73.01903 | 15827 ft | 390 kts | 192° |
| 2026-05-06 05:04 | -37.10051 | -73.02294 | 16393 ft | 393 kts | 191° |
| 2026-05-06 05:04 | -37.12783 | -73.02681 | 16973 ft | 397 kts | 191° |
| 2026-05-06 05:05 | -37.15537 | -73.03064 | 17594 ft | 400 kts | 191° |
| 2026-05-06 05:05 | -37.18315 | -73.03446 | 18189 ft | 403 kts | 191° |
| 2026-05-06 05:05 | -37.21116 | -73.03831 | 18737 ft | 406 kts | 191° |
| 2026-05-06 05:05 | -37.23931 | -73.04219 | 19282 ft | 408 kts | 191° |
| 2026-05-06 05:06 | -37.26768 | -73.04610 | 19836 ft | 412 kts | 191° |
| 2026-05-06 05:06 | -37.29631 | -73.05007 | 20400 ft | 415 kts | 191° |
| 2026-05-06 05:06 | -37.32516 | -73.05409 | 20949 ft | 418 kts | 191° |
| 2026-05-06 05:06 | -37.35425 | -73.05798 | 21472 ft | 422 kts | 190° |
| 2026-05-06 05:07 | -37.38365 | -73.06108 | 21990 ft | 426 kts | 189° |
| 2026-05-06 05:07 | -37.41296 | -73.06353 | 22529 ft | 429 kts | 188° |
| 2026-05-06 05:07 | -37.44285 | -73.06571 | 23078 ft | 432 kts | 188° |
| 2026-05-06 05:07 | -37.47296 | -73.06789 | 23574 ft | 435 kts | 188° |
| 2026-05-06 05:08 | -37.50329 | -73.07022 | 23986 ft | 438 kts | 188° |
| 2026-05-06 05:08 | -37.53383 | -73.07271 | 24385 ft | 441 kts | 188° |
| 2026-05-06 05:08 | -37.56453 | -73.07537 | 24740 ft | 444 kts | 188° |
| 2026-05-06 05:08 | -37.59538 | -73.07811 | 24845 ft | 442 kts | 188° |
| 2026-05-06 05:09 | -37.62573 | -73.08076 | 24866 ft | 435 kts | 188° |
| 2026-05-06 05:09 | -37.65586 | -73.08338 | 24867 ft | 437 kts | 188° |
| 2026-05-06 05:09 | -37.68676 | -73.08615 | 24868 ft | 452 kts | 189° |
| 2026-05-06 05:09 | -37.71856 | -73.08901 | 24862 ft | 465 kts | 188° |
| 2026-05-06 05:10 | -37.75122 | -73.09189 | 24855 ft | 476 kts | 188° |
| 2026-05-06 05:10 | -37.78471 | -73.09428 | 24853 ft | 488 kts | 186° |
| 2026-05-06 05:10 | -37.81904 | -73.09516 | 24846 ft | 498 kts | 184° |
| 2026-05-06 05:10 | -37.85402 | -73.09477 | 24846 ft | 507 kts | 182° |
| 2026-05-06 05:11 | -37.88959 | -73.09369 | 24850 ft | 514 kts | 182° |
| 2026-05-06 05:11 | -37.92550 | -73.09244 | 24840 ft | 518 kts | 182° |
| 2026-05-06 05:11 | -37.96173 | -73.09143 | 24840 ft | 521 kts | 182° |
| 2026-05-06 05:11 | -37.99805 | -73.09076 | 24836 ft | 522 kts | 183° |
| 2026-05-06 05:12 | -38.03441 | -73.09041 | 24844 ft | 522 kts | 183° |
| 2026-05-06 05:12 | -38.07074 | -73.09026 | 24838 ft | 522 kts | 183° |
| 2026-05-06 05:12 | -38.10710 | -73.09021 | 24837 ft | 522 kts | 183° |
| 2026-05-06 05:12 | -38.13117 | -73.09018 | 24845 ft | 523 kts | 183° |
| 2026-05-06 05:13 | -38.17940 | -73.09003 | 24835 ft | 523 kts | 183° |
| 2026-05-06 05:13 | -38.21581 | -73.08979 | 24832 ft | 523 kts | 183° |
| 2026-05-06 05:13 | -38.25219 | -73.08950 | 24830 ft | 523 kts | 183° |
| 2026-05-06 05:13 | -38.28858 | -73.08918 | 24827 ft | 523 kts | 183° |
| 2026-05-06 05:14 | -38.32492 | -73.08885 | 24826 ft | 523 kts | 183° |
| 2026-05-06 05:14 | -38.36129 | -73.08851 | 24835 ft | 522 kts | 182° |
| 2026-05-06 05:14 | -38.38583 | -73.08828 | 24835 ft | 522 kts | 182° |
| 2026-05-06 05:14 | -38.42220 | -73.08796 | 24833 ft | 522 kts | 182° |
| 2026-05-06 05:15 | -38.45849 | -73.08769 | 24825 ft | 522 kts | 183° |
| 2026-05-06 05:15 | -38.49476 | -73.08782 | 24825 ft | 520 kts | 186° |
| 2026-05-06 05:15 | -38.53048 | -73.09325 | 24819 ft | 516 kts | 192° |
| 2026-05-06 05:15 | -38.56553 | -73.09999 | 24813 ft | 512 kts | 192° |
| 2026-05-06 05:16 | -38.59990 | -73.10653 | 24819 ft | 487 kts | 192° |
| 2026-05-06 05:16 | -38.63265 | -73.11273 | 24810 ft | 465 kts | 193° |
| 2026-05-06 05:16 | -38.66404 | -73.11870 | 24811 ft | 446 kts | 193° |
| 2026-05-06 05:16 | -38.69420 | -73.12447 | 24809 ft | 433 kts | 193° |
| 2026-05-06 05:17 | -38.72381 | -73.13023 | 24804 ft | 429 kts | 193° |
| 2026-05-06 05:17 | -38.75324 | -73.13606 | 24714 ft | 425 kts | 193° |
| 2026-05-06 05:17 | -38.78218 | -73.14179 | 24475 ft | 418 kts | 193° |
| 2026-05-06 05:17 | -38.81068 | -73.14738 | 24246 ft | 411 kts | 193° |
| 2026-05-06 05:18 | -38.83877 | -73.15285 | 24014 ft | 406 kts | 193° |
| 2026-05-06 05:18 | -38.86651 | -73.15825 | 23729 ft | 402 kts | 193° |
| 2026-05-06 05:18 | -38.89414 | -73.16363 | 23261 ft | 402 kts | 193° |
| 2026-05-06 05:18 | -38.92174 | -73.16904 | 22767 ft | 401 kts | 193° |
| 2026-05-06 05:19 | -38.94933 | -73.17446 | 22285 ft | 400 kts | 193° |
| 2026-05-06 05:19 | -38.97675 | -73.17981 | 21815 ft | 398 kts | 193° |
| 2026-05-06 05:19 | -39.00406 | -73.18511 | 21333 ft | 396 kts | 193° |
| 2026-05-06 05:19 | -39.03127 | -73.19040 | 20864 ft | 395 kts | 193° |
| 2026-05-06 05:20 | -39.05838 | -73.19568 | 20374 ft | 393 kts | 193° |
| 2026-05-06 05:20 | -39.08536 | -73.20093 | 19903 ft | 392 kts | 193° |
| 2026-05-06 05:20 | -39.11226 | -73.20617 | 19404 ft | 390 kts | 193° |
| 2026-05-06 05:20 | -39.13870 | -73.21134 | 18930 ft | 389 kts | 193° |
| 2026-05-06 05:21 | -39.16540 | -73.21659 | 18448 ft | 388 kts | 193° |
| 2026-05-06 05:21 | -39.19204 | -73.22183 | 17951 ft | 387 kts | 193° |
| 2026-05-06 05:21 | -39.21892 | -73.22707 | 17433 ft | 384 kts | 193° |
| 2026-05-06 05:21 | -39.24491 | -73.23212 | 16957 ft | 382 kts | 192° |
| 2026-05-06 05:22 | -39.27142 | -73.23398 | 16518 ft | 381 kts | 184° |
| 2026-05-06 05:22 | -39.29782 | -73.23388 | 16080 ft | 378 kts | 184° |
| 2026-05-06 05:22 | -39.32433 | -73.23378 | 15642 ft | 374 kts | 183° |
| 2026-05-06 05:22 | -39.34995 | -73.23365 | 15207 ft | 371 kts | 183° |
| 2026-05-06 05:23 | -39.37568 | -73.23350 | 14783 ft | 368 kts | 183° |
| 2026-05-06 05:23 | -39.40122 | -73.23336 | 14357 ft | 365 kts | 183° |
| 2026-05-06 05:23 | -39.45177 | -73.23236 | 13498 ft | 361 kts | 181° |
| 2026-05-06 05:24 | -39.47682 | -73.23099 | 13059 ft | 359 kts | 180° |
| 2026-05-06 05:24 | -39.50164 | -73.22938 | 12632 ft | 355 kts | 179° |
| 2026-05-06 05:24 | -39.52627 | -73.22772 | 12215 ft | 352 kts | 180° |
| 2026-05-06 05:24 | -39.55064 | -73.22617 | 11795 ft | 349 kts | 180° |
| 2026-05-06 05:25 | -39.57485 | -73.22473 | 11374 ft | 347 kts | 180° |
| 2026-05-06 05:25 | -39.59888 | -73.22337 | 10966 ft | 344 kts | 180° |
| 2026-05-06 05:25 | -39.62275 | -73.22206 | 10562 ft | 342 kts | 180° |
| 2026-05-06 05:25 | -39.64649 | -73.22076 | 10147 ft | 341 kts | 180° |
| 2026-05-06 05:26 | -39.67009 | -73.21947 | 9857 ft | 335 kts | 180° |
| 2026-05-06 05:26 | -39.69272 | -73.21821 | 9736 ft | 323 kts | 180° |
| 2026-05-06 05:26 | -39.71473 | -73.21699 | 9271 ft | 313 kts | 180° |
| 2026-05-06 05:26 | -39.73620 | -73.21580 | 8971 ft | 307 kts | 180° |
| 2026-05-06 05:27 | -39.75724 | -73.21462 | 8582 ft | 297 kts | 180° |
| 2026-05-06 05:27 | -39.77759 | -73.21345 | 8203 ft | 288 kts | 180° |
| 2026-05-06 05:27 | -39.79732 | -73.21234 | 7830 ft | 280 kts | 180° |
| 2026-05-06 05:27 | -39.81652 | -73.21129 | 7471 ft | 272 kts | 180° |
| 2026-05-06 05:28 | -39.83515 | -73.21026 | 7120 ft | 264 kts | 180° |
| 2026-05-06 05:28 | -39.85327 | -73.20923 | 6770 ft | 257 kts | 179° |
| 2026-05-06 05:28 | -39.87034 | -73.20343 | 6443 ft | 255 kts | 150° |
| 2026-05-06 05:28 | -39.88324 | -73.18842 | 6104 ft | 246 kts | 120° |
| 2026-05-06 05:29 | -39.88933 | -73.16835 | 5718 ft | 232 kts | 91° |
| 2026-05-06 05:29 | -39.88944 | -73.14823 | 5417 ft | 217 kts | 82° |
| 2026-05-06 05:29 | -39.88902 | -73.12891 | 5075 ft | 211 kts | 82° |
| 2026-05-06 05:29 | -39.88853 | -73.10970 | 4764 ft | 213 kts | 79° |
| 2026-05-06 05:30 | -39.88397 | -73.09243 | 4452 ft | 199 kts | 46° |
| 2026-05-06 05:30 | -39.87387 | -73.08147 | 4188 ft | 184 kts | 17° |
| 2026-05-06 05:30 | -39.86178 | -73.07840 | 3922 ft | 173 kts | 353° |
| 2026-05-06 05:30 | -39.84987 | -73.07887 | 3681 ft | 169 kts | 354° |
| 2026-05-06 05:31 | -39.83827 | -73.07932 | 3465 ft | 165 kts | 355° |
| 2026-05-06 05:31 | -39.82678 | -73.07974 | 3227 ft | 164 kts | 355° |
| 2026-05-06 05:31 | -39.81555 | -73.08018 | 2999 ft | 162 kts | 355° |
| 2026-05-06 05:31 | -39.80443 | -73.08063 | 2793 ft | 159 kts | 355° |
| 2026-05-06 05:32 | -39.79363 | -73.08104 | 2601 ft | 150 kts | 356° |
| 2026-05-06 05:32 | -39.78320 | -73.08144 | 2417 ft | 151 kts | 356° |
| 2026-05-06 05:32 | -39.77255 | -73.08185 | 2199 ft | 152 kts | 355° |
| 2026-05-06 05:32 | -39.76202 | -73.08225 | 2001 ft | 150 kts | 355° |
| 2026-05-06 05:33 | -39.75173 | -73.08263 | 1808 ft | 143 kts | 355° |
| 2026-05-06 05:33 | -39.74209 | -73.08297 | 1640 ft | 136 kts | 356° |
| 2026-05-06 05:33 | -39.73266 | -73.08332 | 1441 ft | 134 kts | 357° |
| 2026-05-06 05:33 | -39.72338 | -73.08367 | 1283 ft | 136 kts | 356° |
| 2026-05-06 05:34 | -39.71390 | -73.08403 | 1086 ft | 137 kts | 359° |
| 2026-05-06 05:34 | -39.70429 | -73.08438 | 905 ft | 138 kts | 1° |
| 2026-05-06 05:34 | -39.69467 | -73.08472 | 724 ft | 139 kts | 2° |
| 2026-05-06 05:34 | -39.68495 | -73.08506 | 539 ft | 139 kts | 2° |
| 2026-05-06 05:35 | -39.67524 | -73.08529 | 350 ft | 140 kts | 359° |
| 2026-05-06 05:35 | -39.66560 | -73.08582 | 219 ft | 137 kts | 3° |
| 2026-05-06 05:35 | -39.65630 | -73.08598 | 72 ft | 127 kts | 359° |
| 2026-05-06 05:35 | -39.64965 | -73.08627 | 66 ft | 54 kts | 358° |
| 2026-05-06 05:36 | -39.64809 | -73.08633 | 65 ft | 13 kts | 358° |
| 2026-05-06 05:36 | -39.64712 | -73.08637 | 65 ft | 15 kts | 358° |
| 2026-05-06 05:36 | -39.64407 | -73.08648 | 66 ft | 87 kts | 359° |
| 2026-05-06 05:36 | -39.65624 | -73.08598 | 72 ft | 0 kts | 359° |